地図

経路データ

SID SEASON NUMBER BASIN SUBBASIN NAME ISO_TIME NATURE LAT LON WMO_WIND WMO_PRES WMO_AGENCY TRACK_TYPE DIST2LAND LANDFALL IFLAG USA_AGENCY USA_ATCF_ID USA_LAT USA_LON USA_RECORD USA_STATUS USA_WIND USA_PRES USA_SSHS USA_R34_NE USA_R34_SE USA_R34_SW USA_R34_NW USA_R50_NE USA_R50_SE USA_R50_SW USA_R50_NW USA_R64_NE USA_R64_SE USA_R64_SW USA_R64_NW USA_POCI USA_ROCI USA_RMW USA_EYE TOKYO_LAT TOKYO_LON TOKYO_GRADE TOKYO_WIND TOKYO_PRES TOKYO_R50_DIR TOKYO_R50_LONG TOKYO_R50_SHORT TOKYO_R30_DIR TOKYO_R30_LONG TOKYO_R30_SHORT TOKYO_LAND CMA_LAT CMA_LON CMA_CAT CMA_WIND CMA_PRES HKO_LAT HKO_LON HKO_CAT HKO_WIND HKO_PRES NEWDELHI_LAT NEWDELHI_LON NEWDELHI_GRADE NEWDELHI_WIND NEWDELHI_PRES NEWDELHI_CI NEWDELHI_DP NEWDELHI_POCI REUNION_LAT REUNION_LON REUNION_TYPE REUNION_WIND REUNION_PRES REUNION_TNUM REUNION_CI REUNION_RMW REUNION_R34_NE REUNION_R34_SE REUNION_R34_SW REUNION_R34_NW REUNION_R50_NE REUNION_R50_SE REUNION_R50_SW REUNION_R50_NW REUNION_R64_NE REUNION_R64_SE REUNION_R64_SW REUNION_R64_NW BOM_LAT BOM_LON BOM_TYPE BOM_WIND BOM_PRES BOM_TNUM BOM_CI BOM_RMW BOM_R34_NE BOM_R34_SE BOM_R34_SW BOM_R34_NW BOM_R50_NE BOM_R50_SE BOM_R50_SW BOM_R50_NW BOM_R64_NE BOM_R64_SE BOM_R64_SW BOM_R64_NW BOM_ROCI BOM_POCI BOM_EYE BOM_POS_METHOD BOM_PRES_METHOD NADI_LAT NADI_LON NADI_CAT NADI_WIND NADI_PRES WELLINGTON_LAT WELLINGTON_LON WELLINGTON_WIND WELLINGTON_PRES DS824_LAT DS824_LON DS824_STAGE DS824_WIND DS824_PRES TD9636_LAT TD9636_LON TD9636_STAGE TD9636_WIND TD9636_PRES TD9635_LAT TD9635_LON TD9635_WIND TD9635_PRES TD9635_ROCI NEUMANN_LAT NEUMANN_LON NEUMANN_CLASS NEUMANN_WIND NEUMANN_PRES MLC_LAT MLC_LON MLC_CLASS MLC_WIND MLC_PRES USA_GUST BOM_GUST BOM_GUST_PER REUNION_GUST REUNION_GUST_PER USA_SEAHGT USA_SEARAD_NE USA_SEARAD_SE USA_SEARAD_SW USA_SEARAD_NW STORM_SPEED STORM_DIR
1884081S10091 1884 10 SI WA NOT_NAMED 1884-03-20 18:00:00 NR -10.4000 91.3000 main 1287 1287 __________O___ -1 -10.4000 91.3000 7 3 249
1884081S10091 1884 10 SI WA NOT_NAMED 1884-03-20 21:00:00 NR -10.4593 91.1421 main 1309 1309 __________P___ -1 -10.4593 91.1421 7 4 249
1884081S10091 1884 10 SI WA NOT_NAMED 1884-03-21 00:00:00 NR -10.5249 90.9674 main 1317 1317 __________P___ -1 -10.5249 90.9674 7 4 249
1884081S10091 1884 10 SI WA NOT_NAMED 1884-03-21 03:00:00 NR -10.6030 90.7590 main 1340 1340 __________P___ -1 -10.6030 90.7590 7 5 249
1884081S10091 1884 10 SI WA NOT_NAMED 1884-03-21 06:00:00 NR -10.7000 90.5000 main 1370 1370 __________O___ -1 -10.7000 90.5000 7 6 249
1884081S10091 1884 10 SI WA NOT_NAMED 1884-03-21 09:00:00 NR -10.8188 90.1795 main 1401 1401 __________P___ -1 -10.8188 90.1795 7 7 250
1884081S10091 1884 10 SI MM NOT_NAMED 1884-03-21 12:00:00 NR -10.9501 89.8101 main 1448 1448 __________P___ -1 -10.9501 89.8101 7 8 251
1884081S10091 1884 10 SI MM NOT_NAMED 1884-03-21 15:00:00 NR -11.0813 89.4107 main 1486 1486 __________P___ -1 -11.0813 89.4107 7 8 253
1884081S10091 1884 10 SI MM NOT_NAMED 1884-03-21 18:00:00 NR -11.2000 89.0000 main 1526 1526 __________O___ -1 -11.2000 89.0000 7 8 256
1884081S10091 1884 10 SI MM NOT_NAMED 1884-03-21 21:00:00 NR -11.2812 88.5989 main 1565 1565 __________P___ -1 -11.2812 88.5989 7 8 259
1884081S10091 1884 10 SI MM NOT_NAMED 1884-03-22 00:00:00 NR -11.3500 88.1922 main 1597 1597 __________P___ -1 -11.3500 88.1922 7 8 260
1884081S10091 1884 10 SI MM NOT_NAMED 1884-03-22 03:00:00 NR -11.4187 87.7895 main 1638 1638 __________P___ -1 -11.4187 87.7895 7 8 259
1884081S10091 1884 10 SI MM NOT_NAMED 1884-03-22 06:00:00 NR -11.5000 87.4000 main 1678 1678 __________O___ -1 -11.5000 87.4000 7 8 256
1884081S10091 1884 10 SI MM NOT_NAMED 1884-03-22 09:00:00 NR -11.6063 87.0437 main 1719 1719 __________P___ -1 -11.6063 87.0437 7 7 252
1884081S10091 1884 10 SI MM NOT_NAMED 1884-03-22 12:00:00 NR -11.7271 86.6998 main 1751 1751 __________P___ -1 -11.7271 86.6998 7 7 249
1884081S10091 1884 10 SI MM NOT_NAMED 1884-03-22 15:00:00 NR -11.8594 86.3561 main 1791 1791 __________P___ -1 -11.8594 86.3561 7 7 248
1884081S10091 1884 10 SI MM NOT_NAMED 1884-03-22 18:00:00 NR -12.0000 86.0000 main 1832 1832 __________O___ -1 -12.0000 86.0000 7 8 249
1884081S10091 1884 10 SI MM NOT_NAMED 1884-03-22 21:00:00 NR -12.1427 85.6143 main 1873 1873 __________P___ -1 -12.1427 85.6143 7 8 249
1884081S10091 1884 10 SI MM NOT_NAMED 1884-03-23 00:00:00 NR -12.2924 85.2149 main 1921 1921 __________P___ -1 -12.2924 85.2149 7 8 249
1884081S10091 1884 10 SI MM NOT_NAMED 1884-03-23 03:00:00 NR -12.4458 84.8080 main 1963 1963 __________P___ -1 -12.4458 84.8080 7 9 249
1884081S10091 1884 10 SI MM NOT_NAMED 1884-03-23 06:00:00 NR -12.6000 84.4000 main 2011 2011 __________O___ -1 -12.6000 84.4000 7 8 249
1884081S10091 1884 10 SI MM NOT_NAMED 1884-03-23 09:00:00 NR -12.7458 83.9998 main 2053 2053 __________P___ -1 -12.7458 83.9998 7 8 249
1884081S10091 1884 10 SI MM NOT_NAMED 1884-03-23 12:00:00 NR -12.8923 83.5997 main 2101 2101 __________P___ -1 -12.8923 83.5997 7 8 249
1884081S10091 1884 10 SI MM NOT_NAMED 1884-03-23 15:00:00 NR -13.0426 83.1998 main 2136 2136 __________P___ -1 -13.0426 83.1998 7 8 248
1884081S10091 1884 10 SI MM NOT_NAMED 1884-03-23 18:00:00 NR -13.2000 82.8000 main 2153 2152 __________O___ -1 -13.2000 82.8000 7 8 247
1884081S10091 1884 10 SI MM NOT_NAMED 1884-03-23 21:00:00 NR -13.3677 82.3959 main 2171 2169 __________P___ -1 -13.3677 82.3959 7 9 246
1884081S10091 1884 10 SI MM NOT_NAMED 1884-03-24 00:00:00 NR -13.5423 81.9924 main 2179 2179 __________P___ -1 -13.5423 81.9924 7 9 246
1884081S10091 1884 10 SI MM NOT_NAMED 1884-03-24 03:00:00 NR -13.7208 81.5927 main 2198 2198 __________P___ -1 -13.7208 81.5927 7 9 245
1884081S10091 1884 10 SI MM NOT_NAMED 1884-03-24 06:00:00 NR -13.9000 81.2000 main 2219 2218 __________O___ -1 -13.9000 81.2000 7 8 245
1884081S10091 1884 10 SI MM NOT_NAMED 1884-03-24 09:00:00 NR -14.0666 80.8215 main 2240 2240 __________P___ -1 -14.0666 80.8215 7 8 245
1884081S10091 1884 10 SI MM NOT_NAMED 1884-03-24 12:00:00 NR -14.2346 80.4495 main 2251 2251 __________P___ -1 -14.2346 80.4495 7 8 244
1884081S10091 1884 10 SI MM NOT_NAMED 1884-03-24 15:00:00 NR -14.4103 80.0778 main 2274 2274 __________P___ -1 -14.4103 80.0778 7 8 243
1884081S10091 1884 10 SI MM NOT_NAMED 1884-03-24 18:00:00 NR -14.6000 79.7000 main 2298 2298 __________O___ -1 -14.6000 79.7000 7 8 242
1884081S10091 1884 10 SI MM NOT_NAMED 1884-03-24 21:00:00 NR -14.8079 79.3115 main 2323 2311 __________P___ -1 -14.8079 79.3115 7 9 240
1884081S10091 1884 10 SI MM NOT_NAMED 1884-03-25 00:00:00 NR -15.0307 78.9134 main 2311 2260 __________P___ -1 -15.0307 78.9134 7 9 240
1884081S10091 1884 10 SI MM NOT_NAMED 1884-03-25 03:00:00 NR -15.2631 78.5086 main 2260 2212 __________P___ -1 -15.2631 78.5086 7 9 239
1884081S10091 1884 10 SI MM NOT_NAMED 1884-03-25 06:00:00 NR -15.5000 78.1000 main 2212 __________O___ -1 -15.5000 78.1000 7 9 239

IBTrACS Databaseについて

本データベースは、米国NOAAが公開する1842年以降の世界の熱帯低気圧のベストトラックデータアーカイブInternational Best Track Archive for Climate Stewardship (IBTrACS)を、ウェブで閲覧しやすい形式に変換したものです。

最終更新日:2021-12-08